KOWB/OWB METAR and TAF weather

Enter ICAO airport designator
Station Type Date Time Source
KOWB METAR 2022/01/29 09:56 UTC NOAA

KOWB 290956Z AUTO 00000KT 9SM CLR M12/M14 A3034 RMK AO2 SLP282 T11221139


Station Type Date Time Source
KOWB Decoded METAR 2022/01/29 09:56 UTC NOAA

Owensboro, Owensboro-Daviess County Airport, KY, United States (KOWB) 37-44-24N 087-10-00W
Jan 29, 2022 - 04:56 AM EST / 2022.01.29 0956 UTC
Wind: Calm:0
Visibility: 9 mile(s):0
Sky conditions: clear
Temperature: 10.0 F (-12.2 C)
Dew Point: 7.0 F (-13.9 C)
Relative Humidity: 87%
Pressure (altimeter): 30.34 in. Hg (1027 hPa)
ob: KOWB 290956Z AUTO 00000KT 9SM CLR M12/M14 A3034 RMK AO2 SLP282 T11221139
cycle: 10

Station Type Date Time Source
KOWB TAF 2022/01/29 06:22 UTC NOAA

TAF KOWB 290520Z 2906/3006 VRB05KT P6SM SKC
FM291800 22010G17KT P6SM SCT250
FM300000 18006KT P6SM BKN200

Example: see airport list